• Join FlightAware (Why Join?)
  • Login
  • US Flag 
04:20AM EDT


 

Airport Tracker/Info


-or-


 

Live Flight TrackerFlight Track Log ✈ EJM31 ✈ 24-Jun-2013 ✈ KIAD - KAFW

Flight Track Log - Related Links

Times and Time Zones

All times are in EDT time to prevent confusion due to time zone crossing. See the EJM31 flight status page for this flight to view local times or setup timezone preferences in your user account.

Time Position Orientation Groundspeed Altitude Reporting Facility
EDT Latitude Longitude Course Direction KTS MPH feet Rate Location/Type
04:02PM 38.9500 -77.5167 226° Southwest 194 223 2,500  Level Potomac TRACON
04:03PM 38.9000 -77.5833 226° Southwest 258 297 5,100 2,520 Climbing Potomac TRACON
04:04PM 38.8500 -77.6500 226° Southwest 274 315 7,900 2,640 Climbing Potomac TRACON
04:05PM 38.8333 -77.7500 258° West 278 320 10,700 2,940 Climbing Potomac TRACON
04:06PM 38.8333 -77.8500 270° West 303 349 13,500 2,640 Climbing Potomac TRACON
04:07PM 38.8414 -77.8892 285° West 318 366 14,500 1,620 Climbing Washington Center
04:08PM 38.8472 -78.0144 273° West 353 406 16,000 780 Climbing Washington Center
04:09PM 38.8531 -78.1453 273° West 359 413 16,100 960 Climbing Washington Center
04:10PM 38.8542 -78.2761 271° West 370 426 17,900 1,860 Climbing Washington Center
04:11PM 38.8531 -78.4172 269° West 377 434 19,800 1,680 Climbing Washington Center
04:12PM 38.8519 -78.5586 269° West 393 452 21,400 1,500 Climbing Washington Center
04:13PM 38.8500 -78.7078 269° West 406 467 22,900 1,500 Climbing Washington Center
04:14PM 38.8483 -78.8569 269° West 413 475 24,400 1,500 Climbing Washington Center
04:15PM 38.8461 -79.0061 269° West 419 482 25,900 1,380 Climbing Washington Center
04:16PM 38.8231 -79.1542 259° West 419 482 27,300 1,500 Climbing Washington Center
04:17PM 38.7600 -79.3108 243° Southwest 431 496 29,000 1,500 Climbing Washington Center
04:18PM 38.6933 -79.4433 237° Southwest 442 509 30,400 1,440 Climbing Washington Center
04:19PM 38.6247 -79.5592 233° Southwest 454 522 31,900 1,440 Climbing Washington Center
04:20PM 38.5497 -79.6828 232° Southwest 454 522 33,300 1,380 Climbing Washington Center
04:21PM 38.4725 -79.8058 231° Southwest 454 522 34,800 1,440 Climbing Washington Center
04:22PM 38.3986 -79.9472 236° Southwest 449 517 36,200 1,140 Climbing Washington Center
04:23PM 38.3525 -80.1711 255° West 431 496 37,800 900 Climbing Indianapolis Center
04:24PM 38.3294 -80.3042 258° West 432 497 38,700 900 Climbing Indianapolis Center
04:25PM 38.3042 -80.4525 258° West 429 494 39,700 600 Climbing Indianapolis Center
04:26PM 38.2631 -80.6314 254° West 435 501 40,000 120 Climbing Indianapolis Center
04:27PM 38.2247 -80.7831 252° West 446 513 40,000  Level Indianapolis Center
04:28PM 38.1861 -80.9372 252° West 454 522 40,000  Level Indianapolis Center
04:30PM 38.1472 -81.0925 252° West 458 527 40,000  Level Indianapolis Center
04:31PM 38.1083 -81.2464 252° West 456 525 40,000  Level Indianapolis Center
04:32PM 38.0672 -81.4006 251° West 457 526 40,000  Level Indianapolis Center
04:33PM 38.0272 -81.5550 252° West 459 528 40,000  Level Indianapolis Center
04:34PM 37.9883 -81.7100 252° West 459 528 40,000  Level Indianapolis Center
04:35PM 37.9467 -81.8639 251° West 459 528 40,000  Level Indianapolis Center
04:36PM 37.8986 -82.0489 252° West 460 529 40,000  Level Indianapolis Center
04:37PM 37.8586 -82.2031 252° West 465 535 40,000  Level Indianapolis Center
04:38PM 37.8186 -82.3575 252° West 466 536 40,000  Level Indianapolis Center
04:39PM 37.7767 -82.5103 251° West 462 532 40,000  Level Indianapolis Center
04:40PM 37.7358 -82.6653 252° West 466 536 40,000  Level Indianapolis Center
04:41PM 37.6869 -82.8475 251° West 471 542 40,000  Level Indianapolis Center
04:42PM 37.6444 -83.0008 251° West 467 537 40,000  Level Indianapolis Center
04:43PM 37.6014 -83.1553 251° West 468 539 40,000  Level Indianapolis Center
04:44PM 37.5594 -83.3083 251° West 466 536 40,000  Level Indianapolis Center
04:45PM 37.5183 -83.4617 251° West 465 535 40,000  Level Indianapolis Center
04:46PM 37.4669 -83.6406 250° West 466 536 40,000  Level Indianapolis Center
04:47PM 37.4242 -83.7942 251° West 467 537 40,000  Level Indianapolis Center
04:48PM 37.3811 -83.9478 251° West 467 537 40,000  Level Indianapolis Center
04:49PM 37.3372 -84.1003 250° West 466 536 40,000  Level Indianapolis Center
04:50PM 37.2925 -84.2533 250° West 468 539 40,000  Level Indianapolis Center
04:51PM 37.2425 -84.4300 250° West 463 533 40,000  Level Indianapolis Center
04:52PM 37.1981 -84.5842 250° West 467 537 40,000  Level Indianapolis Center
04:53PM 37.1539 -84.7347 250° West 463 533 40,000  Level Indianapolis Center
04:54PM 37.1089 -84.8872 250° West 466 536 40,000  Level Indianapolis Center
04:55PM 37.0650 -85.0392 250° West 466 536 40,000  Level Indianapolis Center
04:56PM 37.0208 -85.1872 250° West 464 534 40,000  Level Indianapolis Center
04:57PM 36.9672 -85.3683 250° West 465 535 40,000  Level Indianapolis Center
04:58PM 36.9253 -85.5064 249° West 463 533 40,000  Level Indianapolis Center
04:59PM 36.8789 -85.6586 249° West 464 534 40,000  Level Indianapolis Center
05:00PM 36.8331 -85.8097 249° West 463 533 40,000  Level Indianapolis Center
05:02PM 36.7406 -86.1158 249° West 463 533 40,000  Level Memphis Center
05:03PM 36.6953 -86.2606 249° West 455 524 40,000  Level Memphis Center
05:04PM 36.6503 -86.4128 250° West 462 532 40,000  Level Memphis Center
05:05PM 36.6047 -86.5600 249° West 462 532 40,000  Level Memphis Center
05:06PM 36.5594 -86.7092 249° West 457 526 40,000  Level Memphis Center
05:07PM 36.5156 -86.8583 250° West 457 526 40,000  Level Memphis Center
05:08PM 36.4658 -87.0153 249° West 471 542 40,000  Level Memphis Center
05:09PM 36.4153 -87.1592 246° West 471 542 40,000  Level Memphis Center
05:10PM 36.3692 -87.3081 249° West 466 536 40,000  Level Memphis Center
05:11PM 36.3206 -87.4514 247° West 460 529 40,000  Level Memphis Center
05:12PM 36.2758 -87.5997 250° West 460 529 40,000  Level Memphis Center
05:13PM 36.2269 -87.7431 247° West 455 524 40,000  Level Memphis Center
05:14PM 36.1778 -87.8964 248° West 467 537 40,000  Level Memphis Center
05:15PM 36.1267 -88.0572 249° West 462 532 40,000  Level Memphis Center
05:16PM 36.0853 -88.1789 247° West 456 525 40,000  Level Memphis Center
05:17PM 36.0356 -88.3242 247° West 450 518 40,000  Level Memphis Center
05:18PM 35.9878 -88.4714 248° West 461 531 40,000  Level Memphis Center
05:19PM 35.9378 -88.6161 247° West 461 531 40,000  Level Memphis Center
05:20PM 35.8878 -88.7633 247° West 461 531 40,000  Level Memphis Center
05:21PM 35.8394 -88.9078 248° West 461 531 40,000  Level Memphis Center
05:22PM 35.7869 -89.0544 246° West 461 531 40,000  Level Memphis Center
05:23PM 35.7342 -89.2139 248° West 461 531 40,000  Level Memphis Center
05:24PM 35.6936 -89.3294 247° West 461 531 40,000  Level Memphis Center
05:25PM 35.6428 -89.5039 250° West 454 522 40,000  Level Memphis Center
05:26PM 35.5956 -89.6497 248° West 459 528 40,000  Level Memphis Center
05:27PM 35.5589 -89.7828 251° West 454 522 40,000  Level Memphis Center
05:28PM 35.5178 -89.9286 251° West 454 522 40,000  Level Memphis Center
05:29PM 35.4783 -90.0767 252° West 459 528 40,000  Level Memphis Center
05:30PM 35.4369 -90.2244 251° West 467 537 40,000  Level Memphis Center
05:31PM 35.3953 -90.3750 251° West 467 537 40,000  Level Memphis Center
05:32PM 35.3536 -90.5200 251° West 462 532 40,000  Level Memphis Center
05:33PM 35.3117 -90.6675 251° West 462 532 40,000  Level Memphis Center
05:34PM 35.2714 -90.8122 251° West 462 532 40,000  Level Memphis Center
05:35PM 35.2292 -90.9594 251° West 462 532 40,000  Level Memphis Center
05:36PM 35.1889 -91.0989 251° West 455 524 40,000  Level Memphis Center
05:37PM 35.1419 -91.2611 251° West 455 524 40,000  Level Memphis Center
05:38PM 35.0989 -91.4078 250° West 455 524 40,000  Level Memphis Center
05:39PM 35.0603 -91.5317 249° West 450 518 40,000  Level Memphis Center
05:40PM 35.0172 -91.6781 250° West 450 518 40,000  Level Memphis Center
05:41PM 34.9739 -91.8219 250° West 450 518 40,000  Level Memphis Center
05:42PM 34.9325 -91.9656 251° West 450 518 40,000  Level Memphis Center
05:43PM 34.8889 -92.1064 249° West 450 518 40,000  Level Memphis Center
05:44PM 34.8383 -92.2675 249° West 450 518 40,000  Level Memphis Center
05:45PM 34.7986 -92.4081 251° West 450 518 40,000  Level Memphis Center
05:46PM 34.7567 -92.5511 250° West 457 526 40,000  Level Memphis Center
05:47PM 34.7122 -92.6967 250° West 457 526 40,000  Level Memphis Center
05:48PM 34.6678 -92.8392 249° West 457 526 40,000  Level Memphis Center
05:49PM 34.6253 -92.9794 250° West 457 526 40,000  Level Memphis Center
05:50PM 34.5806 -93.1192 249° West 452 520 40,000  Level Memphis Center
05:51PM 34.5375 -93.2617 250° West 452 520 40,000  Level Memphis Center
05:52PM 34.4944 -93.4039 250° West 452 520 40,000  Level Memphis Center
05:53PM 34.4492 -93.5483 249° West 452 520 40,000  Level Memphis Center
05:56PM 34.3586 -93.8539 250° West 439 505 40,000  Level Fort Worth Center
05:57PM 34.3144 -93.9889 248° West 439 505 40,000  Level Fort Worth Center
05:58PM 34.2703 -94.1289 249° West 439 505 40,000  Level Fort Worth Center
05:59PM 34.2297 -94.2611 250° West 439 505 40,000  Level Fort Worth Center
06:00PM 34.1950 -94.3703 249° West 439 505 40,000  Level Fort Worth Center
06:01PM 34.1403 -94.5303 248° West 439 505 40,000  Level Fort Worth Center
06:02PM 34.0994 -94.6619 250° West 439 505 40,000  Level Fort Worth Center
06:03PM 34.0544 -94.7989 248° West 439 505 40,000 -120 Level Fort Worth Center
06:04PM 34.0111 -94.9331 249° West 439 505 39,800 -960 Descending Fort Worth Center
06:05PM 33.9697 -95.0594 248° West 427 491 38,100 -1,920 Descending Fort Worth Center
06:06PM 33.9261 -95.1856 247° West 416 479 36,100 -2,160 Descending Fort Worth Center
06:07PM 33.8911 -95.3242 253° West 421 484 33,900 -2,220 Descending Fort Worth Center
06:08PM 33.8661 -95.4722 259° West 433 498 31,700 -2,220 Descending Fort Worth Center
06:09PM 33.8472 -95.5978 260° West 438 504 29,500 -2,280 Descending Fort Worth Center
06:10PM 33.8264 -95.7508 261° West 443 510 27,200 -2,220 Descending Fort Worth Center
06:11PM 33.8053 -95.9011 260° West 455 524 25,100 -2,040 Descending Fort Worth Center
06:12PM 33.7864 -96.0639 262° West 460 529 23,100 -1,140 Descending Fort Worth Center
06:13PM 33.7711 -96.1992 262° West 465 535 22,900 -1,740 Descending Fort Worth Center
06:14PM 33.7011 -96.3250 236° Southwest 426 490 19,700 -3,000 Descending Fort Worth Center
06:15PM 33.6267 -96.4056 222° Southwest 412 474 17,000 -2,880 Descending Fort Worth Center
06:16PM 33.5397 -96.5014 223° Southwest 395 455 13,900 -2,760 Descending Fort Worth Center
06:17PM 33.4756 -96.5717 222° Southwest 369 425 11,500 -1,500 Descending Fort Worth Center
06:18PM 33.4133 -96.6369 221° Southwest 320 368 11,000 -780 Descending Fort Worth Center
06:19PM 33.3681 -96.7194 237° Southwest 281 323 10,000 -1,020 Descending Fort Worth Center
06:20PM 33.3600 -96.8042 264° West 275 316 9,000 -1,260 Descending Fort Worth Center
06:21PM 33.3417 -96.9061 258° West 281 323 7,500 -1,500 Descending Fort Worth Center
06:22PM 33.3567 -96.9883 282° West 276 318 6,100 -1,200 Descending Fort Worth Center
06:23PM 33.3819 -97.0850 287° West 276 318 5,100 -960 Descending Fort Worth Center
06:24PM 33.3925 -97.1672 279° West 281 323 4,200 -600 Descending Fort Worth Center
06:25PM 33.3928 -97.2567 270° West 272 313 4,000 -120 Descending Fort Worth Center
06:25PM 33.3333 -97.3000 211° Southwest 263 303 4,000  Level Dallas / Fort Worth TRACON
06:27PM 33.2500 -97.3167 189° South 257 296 4,000  Level Dallas / Fort Worth TRACON
06:28PM 33.2000 -97.3167 180° South 245 282 4,000 -360 Level Dallas / Fort Worth TRACON
06:29PM 33.1333 -97.3333 192° South 202 232 3,400 -720 Descending Dallas / Fort Worth TRACON
06:30PM 33.0833 -97.3333 180° South 171 197 2,500 -900 Descending Dallas / Fort Worth TRACON
06:31PM 33.0500 -97.3333 180° South 144 166 1,600 -1,020 Descending Dallas / Fort Worth TRACON